SBSP/CGH METAR and TAF weather

Enter ICAO airport designator
Station Type Date Time Source
SBSP METAR 2020/01/26 19:00 UTC NOAA

SBSP 261900Z 16010KT 100V180 CAVOK 29/10 Q1014


Station Type Date Time Source
SBSP Decoded METAR 2020/01/26 19:00 UTC NOAA

Sao Paulo/Congonhas Aeroporto, Brazil (SBSP) 23-37S 046-39W 802M
Jan 26, 2020 - 02:00 PM EST / 2020.01.26 1900 UTC
Wind: from the SSE (160 degrees) at 12 MPH (10 KT) (direction variable):0
Visibility: greater than 7 mile(s):0
Temperature: 84 F (29 C)
Dew Point: 50 F (10 C)
Relative Humidity: 30%
Pressure (altimeter): 29.94 in. Hg (1014 hPa)
ob: SBSP 261900Z 16010KT 100V180 CAVOK 29/10 Q1014
cycle: 19

Station Type Date Time Source
SBSP TAF 2020/01/26 18:42 UTC NOAA

TAF SBSP 260008Z 2618/2706 20010KT CAVOK TX30/2618Z TN19/2705Z
BECMG 2619/2621 16008KT
BECMG 2621/2623 15007KT
BECMG 2623/2701 11006KT
BECMG 2701/2703 08006KT
BECMG 2703/2705 08002KT
RMK PGM

Example: see airport list